createdAt,value
2022-09-20T00:02:29.993Z,1016.62
2022-09-20T00:08:49.975Z,1016.6
2022-09-20T00:15:13.003Z,1016.56
2022-09-20T00:21:33.013Z,1016.58
2022-09-20T00:27:55.979Z,1016.5
2022-09-20T00:34:16.014Z,1016.52
2022-09-20T00:40:39.036Z,1016.54
2022-09-20T00:46:58.979Z,1016.56
2022-09-20T00:53:21.997Z,1016.6
2022-09-20T00:59:41.973Z,1016.64
2022-09-20T01:06:04.972Z,1016.66
2022-09-20T01:12:25.024Z,1016.6
2022-09-20T01:18:47.983Z,1016.52
2022-09-20T01:25:08.005Z,1016.52
2022-09-20T01:31:31.065Z,1016.56
2022-09-20T01:37:50.999Z,1016.58
2022-09-20T01:44:13.982Z,1016.6
2022-09-20T01:50:34.004Z,1016.66
2022-09-20T01:56:57.015Z,1016.64
2022-09-20T02:03:16.976Z,1016.66
2022-09-20T02:09:40.005Z,1016.68
2022-09-20T02:15:59.984Z,1016.68
2022-09-20T02:22:22.987Z,1016.68
2022-09-20T02:28:42.993Z,1016.64
2022-09-20T02:35:05.984Z,1016.6
2022-09-20T02:41:25.981Z,1016.56
2022-09-20T02:47:49.029Z,1016.56
2022-09-20T02:54:08.977Z,1016.58
2022-09-20T03:00:31.970Z,1016.56
2022-09-20T03:06:52.018Z,1016.52
2022-09-20T03:13:14.975Z,1016.48
2022-09-20T03:19:34.998Z,1016.48
2022-09-20T03:25:58.025Z,1016.48
2022-09-20T03:32:18.046Z,1016.47
2022-09-20T03:49:04.978Z,1016.5
2022-09-20T03:55:24.969Z,1016.52
2022-09-20T04:01:47.984Z,1016.58
2022-09-20T04:08:08.000Z,1016.6
2022-09-20T04:14:30.974Z,1016.56
2022-09-20T04:20:50.986Z,1016.54
2022-09-20T04:27:13.999Z,1016.52
2022-09-20T04:33:34.000Z,1016.56
2022-09-20T04:39:57.031Z,1016.58
2022-09-20T04:46:17.036Z,1016.66
2022-09-20T04:52:39.994Z,1016.68
2022-09-20T04:58:59.980Z,1016.7
2022-09-20T05:05:23.008Z,1016.74
2022-09-20T05:11:42.984Z,1016.8
2022-09-20T05:18:05.999Z,1016.88
2022-09-20T05:24:26.019Z,1016.95
2022-09-20T05:30:49.005Z,1017.03
2022-09-20T05:37:08.996Z,1017.03
2022-09-20T05:43:32.017Z,1017.01
2022-09-20T05:49:52.003Z,1017.07
2022-09-20T05:56:15.004Z,1017.11
2022-09-20T06:02:35.109Z,1017.13
2022-09-20T06:08:58.011Z,1017.17
2022-09-20T06:15:17.980Z,1017.21
2022-09-20T06:21:41.016Z,1017.25
2022-09-20T06:28:01.026Z,1017.23
2022-09-20T06:34:23.987Z,1017.25
2022-09-20T06:40:44.036Z,1017.29
2022-09-20T06:47:07.010Z,1017.33
2022-09-20T06:53:27.006Z,1017.29
2022-09-20T06:59:50.056Z,1017.38
2022-09-20T07:06:09.989Z,1017.44
2022-09-20T07:12:32.980Z,1017.5
2022-09-20T07:18:53.022Z,1017.54
2022-09-20T07:25:16.001Z,1017.56
2022-09-20T07:31:36.000Z,1017.56
2022-09-20T07:37:59.037Z,1017.6
2022-09-20T07:44:18.974Z,1017.64
2022-09-20T07:50:41.986Z,1017.72
2022-09-20T07:57:02.013Z,1017.7
2022-09-20T08:03:24.984Z,1017.7
2022-09-20T08:09:44.981Z,1017.74
2022-09-20T08:16:07.999Z,1017.74
2022-09-20T08:22:27.991Z,1017.74
2022-09-20T08:28:50.979Z,1017.76
2022-09-20T08:35:11.033Z,1017.78
2022-09-20T08:41:33.996Z,1017.8
2022-09-20T08:47:57.869Z,1017.78
2022-09-20T08:54:17.138Z,1017.74
2022-09-20T09:17:03.039Z,1017.78
2022-09-20T09:23:26.000Z,1017.72
2022-09-20T09:29:45.989Z,1017.72
2022-09-20T09:36:09.038Z,1017.68
2022-09-20T09:42:29.100Z,1017.64
2022-09-20T09:48:51.990Z,1017.64
2022-09-20T09:55:12.013Z,1017.64
2022-09-20T10:01:35.024Z,1017.58
2022-09-20T10:07:55.067Z,1017.58
2022-09-20T10:14:18.159Z,1017.54
2022-09-20T10:20:37.987Z,1017.6
2022-09-20T10:27:00.975Z,1017.6
2022-09-20T10:33:21.024Z,1017.6
2022-09-20T10:39:43.986Z,1017.64
2022-09-20T10:46:27.815Z,1017.66
2022-09-20T10:52:27.009Z,1017.68
2022-09-20T10:58:47.014Z,1017.68
2022-09-20T11:05:10.157Z,1017.68
2022-09-20T11:11:30.051Z,1017.7
2022-09-20T11:17:52.983Z,1017.78
2022-09-20T11:24:12.985Z,1017.76
2022-09-20T11:30:36.001Z,1017.74
2022-09-20T11:36:56.016Z,1017.7
2022-09-20T11:43:19.104Z,1017.7
2022-09-20T11:49:39.013Z,1017.7
2022-09-20T11:56:01.980Z,1017.74
2022-09-20T12:02:23.224Z,1017.76
2022-09-20T12:08:46.010Z,1017.8
2022-09-20T12:15:05.980Z,1017.8
2022-09-20T12:21:28.995Z,1017.8
2022-09-20T12:27:49.005Z,1017.81
2022-09-20T12:34:11.987Z,1017.78
2022-09-20T12:40:32.065Z,1017.8
2022-09-20T12:46:55.004Z,1017.81
2022-09-20T12:53:14.991Z,1017.83
2022-09-20T12:59:37.972Z,1017.81
2022-09-20T13:05:58.029Z,1017.8
2022-09-20T13:12:20.986Z,1017.83
2022-09-20T13:18:41.001Z,1017.83
2022-09-20T13:25:04.116Z,1017.85
2022-09-20T13:31:24.005Z,1017.85
2022-09-20T13:37:46.993Z,1017.78
2022-09-20T13:44:06.997Z,1017.78
2022-09-20T13:50:30.051Z,1017.72
2022-09-20T13:56:49.982Z,1017.68
2022-09-20T14:03:13.008Z,1017.62
2022-09-20T14:09:32.999Z,1017.58
2022-09-20T14:15:55.976Z,1017.56
2022-09-20T14:22:16.030Z,1017.54
2022-09-20T14:45:40.061Z,1017.54
2022-09-20T14:52:02.995Z,1017.58
2022-09-20T14:58:23.012Z,1017.56
2022-09-20T15:04:46.017Z,1017.56
2022-09-20T15:11:05.983Z,1017.56
2022-09-20T15:17:28.977Z,1017.52
2022-09-20T15:23:49.018Z,1017.5
2022-09-20T15:30:11.992Z,1017.48
2022-09-20T15:36:32.062Z,1017.52
2022-09-20T15:42:55.194Z,1017.5
2022-09-20T15:49:15.177Z,1017.48
2022-09-20T15:55:39.180Z,1017.46
2022-09-20T16:01:59.075Z,1017.44
2022-09-20T16:08:21.979Z,1017.44
2022-09-20T16:14:42.015Z,1017.44
2022-09-20T16:21:05.001Z,1017.44
2022-09-20T16:27:24.992Z,1017.5
2022-09-20T16:33:47.982Z,1017.54
2022-09-20T16:40:08.063Z,1017.58
2022-09-20T16:46:30.988Z,1017.62
2022-09-20T16:52:50.967Z,1017.66
2022-09-20T16:59:14.086Z,1017.68
2022-09-20T17:05:34.006Z,1017.74
2022-09-20T17:11:56.977Z,1017.72
2022-09-20T17:18:17.016Z,1017.76
2022-09-20T17:24:39.971Z,1017.8
2022-09-20T17:30:59.980Z,1017.89
2022-09-20T17:37:22.998Z,1017.95
2022-09-20T17:43:42.970Z,1018.03
2022-09-20T17:50:05.980Z,1018.11
2022-09-20T17:56:25.997Z,1018.15
2022-09-20T18:02:48.988Z,1018.21
2022-09-20T18:09:08.964Z,1018.37
2022-09-20T18:15:32.063Z,1018.47
2022-09-20T18:21:51.971Z,1018.57
2022-09-20T18:28:14.975Z,1018.63
2022-09-20T18:34:35.028Z,1018.71
2022-09-20T18:40:57.969Z,1018.78
2022-09-20T18:47:17.980Z,1018.8
2022-09-20T18:53:40.992Z,1018.86
2022-09-20T19:00:03.894Z,1018.9
2022-09-20T19:06:23.991Z,1018.98
2022-09-20T19:12:44.001Z,1019
2022-09-20T19:19:06.983Z,1019.06
2022-09-20T19:25:26.982Z,1019.1
2022-09-20T19:31:50.005Z,1019.17
2022-09-20T19:38:09.999Z,1019.23
2022-09-20T19:44:32.969Z,1019.35
2022-09-20T20:07:20.505Z,1019.45
2022-09-20T20:13:39.983Z,1019.53
2022-09-20T20:20:02.987Z,1019.62
2022-09-20T20:26:23.032Z,1019.66
2022-09-20T20:32:45.999Z,1019.74
2022-09-20T20:39:06.059Z,1019.74
2022-09-20T20:45:28.992Z,1019.8
2022-09-20T20:51:49.009Z,1019.86
2022-09-20T20:58:11.994Z,1019.88
2022-09-20T21:04:32.007Z,1019.96
2022-09-20T21:10:54.991Z,1020
2022-09-20T21:17:14.975Z,1020.04
2022-09-20T21:23:38.002Z,1020.06
2022-09-20T21:29:57.976Z,1020.11
2022-09-20T21:36:20.974Z,1020.13
2022-09-20T21:42:41.004Z,1020.17
2022-09-20T21:49:03.995Z,1020.17
2022-09-20T21:55:23.987Z,1020.21
2022-09-20T22:19:41.996Z,1020.29
2022-09-20T22:26:01.983Z,1020.29
2022-09-20T22:32:24.967Z,1020.29
2022-09-20T22:38:45.026Z,1020.35
2022-09-20T22:45:07.983Z,1020.39
2022-09-20T22:51:27.976Z,1020.37
2022-09-20T22:57:50.994Z,1020.39
2022-09-20T23:04:10.977Z,1020.41
2022-09-20T23:10:33.977Z,1020.41
2022-09-20T23:16:54.038Z,1020.45
2022-09-20T23:23:17.009Z,1020.43
2022-09-20T23:29:36.994Z,1020.45
2022-09-20T23:36:00.032Z,1020.43
2022-09-20T23:42:19.956Z,1020.43
2022-09-20T23:48:42.998Z,1020.43
2022-09-20T23:55:02.995Z,1020.43
